sensor_id;sensor_type;location;lat;lon;timestamp;P1;durP1;ratioP1;P2;durP2;ratioP2
5054;SDS011;13829;48.990;8.346;2024-03-23T00:55:03;10.40;;;6.50;;
5054;SDS011;13829;48.990;8.346;2024-03-23T00:57:29;7.63;;;6.43;;
5054;SDS011;13829;48.990;8.346;2024-03-23T00:59:56;8.20;;;6.00;;
5054;SDS011;13829;48.990;8.346;2024-03-23T01:02:22;8.10;;;6.03;;
5054;SDS011;13829;48.990;8.346;2024-03-23T01:04:49;8.27;;;5.60;;
5054;SDS011;13829;48.990;8.346;2024-03-23T01:07:15;5.57;;;4.97;;
5054;SDS011;13829;48.990;8.346;2024-03-23T01:09:43;6.00;;;5.10;;
5054;SDS011;13829;48.990;8.346;2024-03-23T01:12:09;7.53;;;6.03;;
5054;SDS011;13829;48.990;8.346;2024-03-23T01:14:36;5.97;;;5.30;;
5054;SDS011;13829;48.990;8.346;2024-03-23T01:17:02;6.30;;;5.20;;
5054;SDS011;13829;48.990;8.346;2024-03-23T01:19:29;7.17;;;5.90;;
5054;SDS011;13829;48.990;8.346;2024-03-23T01:21:55;9.53;;;5.83;;
5054;SDS011;13829;48.990;8.346;2024-03-23T01:24:22;6.73;;;5.57;;
5054;SDS011;13829;48.990;8.346;2024-03-23T01:26:49;5.70;;;4.97;;
5054;SDS011;13829;48.990;8.346;2024-03-23T01:29:16;6.27;;;5.23;;
5054;SDS011;13829;48.990;8.346;2024-03-23T01:31:42;7.83;;;5.37;;
5054;SDS011;13829;48.990;8.346;2024-03-23T01:34:10;7.03;;;5.33;;
5054;SDS011;13829;48.990;8.346;2024-03-23T01:36:36;6.93;;;5.27;;
5054;SDS011;13829;48.990;8.346;2024-03-23T01:39:04;5.50;;;5.00;;
5054;SDS011;13829;48.990;8.346;2024-03-23T01:41:30;5.63;;;4.97;;
5054;SDS011;13829;48.990;8.346;2024-03-23T01:43:58;5.13;;;4.53;;
5054;SDS011;13829;48.990;8.346;2024-03-23T01:46:30;5.63;;;4.93;;
5054;SDS011;13829;48.990;8.346;2024-03-23T01:48:58;6.63;;;5.47;;
5054;SDS011;13829;48.990;8.346;2024-03-23T01:51:25;5.13;;;4.63;;
5054;SDS011;13829;48.990;8.346;2024-03-23T01:53:53;5.53;;;4.33;;
5054;SDS011;13829;48.990;8.346;2024-03-23T01:56:21;6.63;;;5.00;;
5054;SDS011;13829;48.990;8.346;2024-03-23T01:58:48;5.70;;;5.13;;
5054;SDS011;13829;48.990;8.346;2024-03-23T02:01:16;5.43;;;4.87;;
5054;SDS011;13829;48.990;8.346;2024-03-23T02:03:44;6.80;;;4.80;;
5054;SDS011;13829;48.990;8.346;2024-03-23T02:06:10;7.17;;;4.73;;
5054;SDS011;13829;48.990;8.346;2024-03-23T02:08:37;6.17;;;5.47;;
5054;SDS011;13829;48.990;8.346;2024-03-23T02:11:04;7.30;;;4.70;;
5054;SDS011;13829;48.990;8.346;2024-03-23T02:13:31;7.27;;;5.17;;
5054;SDS011;13829;48.990;8.346;2024-03-23T02:15:57;6.77;;;4.87;;
5054;SDS011;13829;48.990;8.346;2024-03-23T02:18:25;6.40;;;5.23;;
5054;SDS011;13829;48.990;8.346;2024-03-23T02:20:51;7.87;;;4.90;;
5054;SDS011;13829;48.990;8.346;2024-03-23T02:23:19;6.33;;;5.63;;
5054;SDS011;13829;48.990;8.346;2024-03-23T02:25:45;5.83;;;5.23;;
5054;SDS011;13829;48.990;8.346;2024-03-23T02:28:12;9.20;;;5.20;;
5054;SDS011;13829;48.990;8.346;2024-03-23T02:30:38;7.27;;;5.67;;
5054;SDS011;13829;48.990;8.346;2024-03-23T02:33:05;6.57;;;5.50;;
5054;SDS011;13829;48.990;8.346;2024-03-23T02:35:31;7.97;;;4.97;;
5054;SDS011;13829;48.990;8.346;2024-03-23T02:37:58;8.20;;;5.33;;
5054;SDS011;13829;48.990;8.346;2024-03-23T02:40:26;7.87;;;5.13;;
5054;SDS011;13829;48.990;8.346;2024-03-23T02:42:54;8.83;;;5.30;;
5054;SDS011;13829;48.990;8.346;2024-03-23T02:45:20;6.60;;;5.07;;
5054;SDS011;13829;48.990;8.346;2024-03-23T02:47:47;7.97;;;5.37;;
5054;SDS011;13829;48.990;8.346;2024-03-23T02:50:16;7.13;;;5.20;;
5054;SDS011;13829;48.990;8.346;2024-03-23T02:52:44;7.37;;;5.63;;
5054;SDS011;13829;48.990;8.346;2024-03-23T02:55:10;7.73;;;5.43;;
5054;SDS011;13829;48.990;8.346;2024-03-23T02:57:38;8.87;;;6.00;;
5054;SDS011;13829;48.990;8.346;2024-03-23T03:00:05;8.30;;;6.00;;
5054;SDS011;13829;48.990;8.346;2024-03-23T03:02:33;8.43;;;5.70;;
5054;SDS011;13829;48.990;8.346;2024-03-23T03:04:59;5.90;;;5.30;;
5054;SDS011;13829;48.990;8.346;2024-03-23T03:07:26;8.00;;;6.57;;
5054;SDS011;13829;48.990;8.346;2024-03-23T03:09:52;7.47;;;6.37;;
5054;SDS011;13829;48.990;8.346;2024-03-23T03:12:19;8.00;;;6.53;;
5054;SDS011;13829;48.990;8.346;2024-03-23T03:14:46;10.77;;;7.90;;
5054;SDS011;13829;48.990;8.346;2024-03-23T03:17:13;11.83;;;7.70;;
5054;SDS011;13829;48.990;8.346;2024-03-23T03:19:40;9.67;;;7.67;;
5054;SDS011;13829;48.990;8.346;2024-03-23T03:22:06;11.10;;;8.90;;
5054;SDS011;13829;48.990;8.346;2024-03-23T03:24:32;10.27;;;7.83;;
5054;SDS011;13829;48.990;8.346;2024-03-23T03:26:59;9.60;;;8.13;;
5054;SDS011;13829;48.990;8.346;2024-03-23T03:29:25;14.23;;;8.97;;
5054;SDS011;13829;48.990;8.346;2024-03-23T03:32:00;13.53;;;9.40;;
5054;SDS011;13829;48.990;8.346;2024-03-23T03:34:27;12.97;;;9.53;;
5054;SDS011;13829;48.990;8.346;2024-03-23T03:36:54;12.50;;;9.47;;
5054;SDS011;13829;48.990;8.346;2024-03-23T03:39:21;13.10;;;8.97;;
5054;SDS011;13829;48.990;8.346;2024-03-23T03:41:48;12.33;;;9.50;;
5054;SDS011;13829;48.990;8.346;2024-03-23T03:44:14;14.73;;;9.73;;
5054;SDS011;13829;48.990;8.346;2024-03-23T03:46:41;14.13;;;10.23;;
5054;SDS011;13829;48.990;8.346;2024-03-23T03:49:09;17.33;;;10.03;;
5054;SDS011;13829;48.990;8.346;2024-03-23T03:51:36;14.30;;;8.93;;
5054;SDS011;13829;48.990;8.346;2024-03-23T03:54:02;12.33;;;9.60;;
5054;SDS011;13829;48.990;8.346;2024-03-23T03:56:29;14.73;;;10.77;;
5054;SDS011;13829;48.990;8.346;2024-03-23T03:58:55;14.07;;;10.30;;
5054;SDS011;13829;48.990;8.346;2024-03-23T04:01:22;17.13;;;11.13;;
5054;SDS011;13829;48.990;8.346;2024-03-23T04:03:48;15.00;;;10.63;;
5054;SDS011;13829;48.990;8.346;2024-03-23T04:06:19;15.03;;;10.70;;
5054;SDS011;13829;48.990;8.346;2024-03-23T04:08:45;15.63;;;10.33;;
5054;SDS011;13829;48.990;8.346;2024-03-23T04:11:12;14.40;;;11.10;;
5054;SDS011;13829;48.990;8.346;2024-03-23T04:13:38;14.50;;;10.60;;
5054;SDS011;13829;48.990;8.346;2024-03-23T04:16:06;14.27;;;10.70;;
5054;SDS011;13829;48.990;8.346;2024-03-23T04:18:32;13.83;;;10.80;;
5054;SDS011;13829;48.990;8.346;2024-03-23T04:20:59;16.13;;;10.17;;
5054;SDS011;13829;48.990;8.346;2024-03-23T04:23:28;14.00;;;10.40;;
5054;SDS011;13829;48.990;8.346;2024-03-23T04:25:54;15.67;;;10.40;;
5054;SDS011;13829;48.990;8.346;2024-03-23T04:28:21;11.10;;;9.47;;
5054;SDS011;13829;48.990;8.346;2024-03-23T04:30:47;14.40;;;9.83;;
5054;SDS011;13829;48.990;8.346;2024-03-23T04:33:14;14.20;;;9.03;;
5054;SDS011;13829;48.990;8.346;2024-03-23T04:35:40;11.83;;;9.13;;
5054;SDS011;13829;48.990;8.346;2024-03-23T04:38:07;13.57;;;9.07;;
5054;SDS011;13829;48.990;8.346;2024-03-23T04:40:35;9.47;;;7.77;;
5054;SDS011;13829;48.990;8.346;2024-03-23T04:43:02;10.03;;;7.40;;
5054;SDS011;13829;48.990;8.346;2024-03-23T04:45:29;8.77;;;7.53;;
5054;SDS011;13829;48.990;8.346;2024-03-23T04:47:56;11.93;;;7.50;;
5054;SDS011;13829;48.990;8.346;2024-03-23T04:50:23;8.30;;;7.17;;
5054;SDS011;13829;48.990;8.346;2024-03-23T04:52:50;10.40;;;7.47;;
5054;SDS011;13829;48.990;8.346;2024-03-23T04:55:17;10.37;;;7.53;;
5054;SDS011;13829;48.990;8.346;2024-03-23T04:57:45;11.10;;;7.60;;
5054;SDS011;13829;48.990;8.346;2024-03-23T05:00:12;9.73;;;7.27;;
5054;SDS011;13829;48.990;8.346;2024-03-23T05:02:43;9.20;;;7.67;;
5054;SDS011;13829;48.990;8.346;2024-03-23T05:05:11;8.63;;;7.00;;
5054;SDS011;13829;48.990;8.346;2024-03-23T05:07:37;8.73;;;6.50;;
5054;SDS011;13829;48.990;8.346;2024-03-23T05:10:05;7.20;;;6.30;;
5054;SDS011;13829;48.990;8.346;2024-03-23T05:12:35;6.63;;;4.03;;
5054;SDS011;13829;48.990;8.346;2024-03-23T05:15:03;3.67;;;2.80;;
5054;SDS011;13829;48.990;8.346;2024-03-23T05:17:30;3.40;;;2.77;;
5054;SDS011;13829;48.990;8.346;2024-03-23T05:19:58;4.07;;;2.07;;
5054;SDS011;13829;48.990;8.346;2024-03-23T05:22:24;3.03;;;1.90;;
5054;SDS011;13829;48.990;8.346;2024-03-23T05:24:52;2.93;;;1.90;;
5054;SDS011;13829;48.990;8.346;2024-03-23T05:27:18;2.93;;;2.10;;
5054;SDS011;13829;48.990;8.346;2024-03-23T05:29:45;2.30;;;1.60;;
5054;SDS011;13829;48.990;8.346;2024-03-23T05:32:13;2.47;;;1.60;;
5054;SDS011;13829;48.990;8.346;2024-03-23T05:34:40;1.53;;;1.37;;
5054;SDS011;13829;48.990;8.346;2024-03-23T05:37:06;2.10;;;1.40;;
5054;SDS011;13829;48.990;8.346;2024-03-23T05:39:33;2.43;;;1.53;;
5054;SDS011;13829;48.990;8.346;2024-03-23T05:41:59;2.17;;;1.90;;
5054;SDS011;13829;48.990;8.346;2024-03-23T05:44:26;1.30;;;1.20;;
5054;SDS011;13829;48.990;8.346;2024-03-23T05:46:52;1.40;;;1.30;;
5054;SDS011;13829;48.990;8.346;2024-03-23T05:49:20;1.60;;;1.33;;
5054;SDS011;13829;48.990;8.346;2024-03-23T05:51:46;1.07;;;0.97;;
5054;SDS011;13829;48.990;8.346;2024-03-23T05:54:13;1.60;;;1.00;;
5054;SDS011;13829;48.990;8.346;2024-03-23T05:56:39;3.20;;;1.27;;
5054;SDS011;13829;48.990;8.346;2024-03-23T05:59:07;2.27;;;1.07;;
5054;SDS011;13829;48.990;8.346;2024-03-23T06:01:33;0.77;;;0.77;;
5054;SDS011;13829;48.990;8.346;2024-03-23T06:04:00;1.00;;;0.90;;
5054;SDS011;13829;48.990;8.346;2024-03-23T06:06:27;0.83;;;0.80;;
5054;SDS011;13829;48.990;8.346;2024-03-23T06:08:56;0.70;;;0.70;;
5054;SDS011;13829;48.990;8.346;2024-03-23T06:11:22;0.70;;;0.70;;
5054;SDS011;13829;48.990;8.346;2024-03-23T06:13:49;0.70;;;0.70;;
5054;SDS011;13829;48.990;8.346;2024-03-23T06:16:15;1.30;;;0.80;;
5054;SDS011;13829;48.990;8.346;2024-03-23T06:18:44;2.10;;;0.80;;
5054;SDS011;13829;48.990;8.346;2024-03-23T06:21:13;0.63;;;0.50;;
5054;SDS011;13829;48.990;8.346;2024-03-23T06:23:41;3.00;;;0.90;;
5054;SDS011;13829;48.990;8.346;2024-03-23T06:26:07;1.43;;;0.80;;
5054;SDS011;13829;48.990;8.346;2024-03-23T06:28:34;0.63;;;0.60;;
5054;SDS011;13829;48.990;8.346;2024-03-23T06:31:02;0.70;;;0.70;;
5054;SDS011;13829;48.990;8.346;2024-03-23T06:33:28;0.70;;;0.70;;
5054;SDS011;13829;48.990;8.346;2024-03-23T06:35:55;0.83;;;0.77;;
5054;SDS011;13829;48.990;8.346;2024-03-23T06:38:21;1.17;;;0.80;;
5054;SDS011;13829;48.990;8.346;2024-03-23T06:40:49;1.23;;;0.90;;
5054;SDS011;13829;48.990;8.346;2024-03-23T06:43:17;0.90;;;0.90;;
5054;SDS011;13829;48.990;8.346;2024-03-23T06:45:44;0.70;;;0.70;;
5054;SDS011;13829;48.990;8.346;2024-03-23T06:48:18;0.63;;;0.63;;
5054;SDS011;13829;48.990;8.346;2024-03-23T06:50:45;0.83;;;0.77;;
5054;SDS011;13829;48.990;8.346;2024-03-23T06:53:11;0.73;;;0.73;;
5054;SDS011;13829;48.990;8.346;2024-03-23T06:55:38;0.90;;;0.73;;
5054;SDS011;13829;48.990;8.346;2024-03-23T06:58:06;0.90;;;0.70;;
5054;SDS011;13829;48.990;8.346;2024-03-23T07:00:35;1.03;;;0.80;;
5054;SDS011;13829;48.990;8.346;2024-03-23T07:03:01;0.50;;;0.50;;
5054;SDS011;13829;48.990;8.346;2024-03-23T07:05:28;0.83;;;0.73;;
5054;SDS011;13829;48.990;8.346;2024-03-23T07:07:54;0.50;;;0.50;;
5054;SDS011;13829;48.990;8.346;2024-03-23T07:10:21;0.50;;;0.50;;
5054;SDS011;13829;48.990;8.346;2024-03-23T07:12:47;2.40;;;0.60;;
5054;SDS011;13829;48.990;8.346;2024-03-23T07:15:16;0.83;;;0.40;;
5054;SDS011;13829;48.990;8.346;2024-03-23T07:17:42;0.67;;;0.40;;
5054;SDS011;13829;48.990;8.346;2024-03-23T07:20:09;0.40;;;0.40;;
5054;SDS011;13829;48.990;8.346;2024-03-23T07:22:36;0.50;;;0.50;;
5054;SDS011;13829;48.990;8.346;2024-03-23T07:25:04;0.33;;;0.33;;
5054;SDS011;13829;48.990;8.346;2024-03-23T07:27:31;0.40;;;0.40;;
5054;SDS011;13829;48.990;8.346;2024-03-23T07:29:58;0.60;;;0.53;;
5054;SDS011;13829;48.990;8.346;2024-03-23T07:32:27;0.67;;;0.50;;
5054;SDS011;13829;48.990;8.346;2024-03-23T07:34:54;0.60;;;0.50;;
5054;SDS011;13829;48.990;8.346;2024-03-23T07:37:20;0.60;;;0.60;;
5054;SDS011;13829;48.990;8.346;2024-03-23T07:39:47;0.83;;;0.70;;
5054;SDS011;13829;48.990;8.346;2024-03-23T07:42:13;0.70;;;0.50;;
5054;SDS011;13829;48.990;8.346;2024-03-23T07:44:40;0.50;;;0.50;;
5054;SDS011;13829;48.990;8.346;2024-03-23T07:47:06;0.70;;;0.70;;
5054;SDS011;13829;48.990;8.346;2024-03-23T07:49:34;1.00;;;0.60;;
5054;SDS011;13829;48.990;8.346;2024-03-23T07:52:01;0.60;;;0.60;;
5054;SDS011;13829;48.990;8.346;2024-03-23T07:54:29;0.70;;;0.70;;
5054;SDS011;13829;48.990;8.346;2024-03-23T07:56:55;0.67;;;0.67;;
5054;SDS011;13829;48.990;8.346;2024-03-23T07:59:22;0.70;;;0.70;;
5054;SDS011;13829;48.990;8.346;2024-03-23T08:01:48;2.30;;;0.80;;
5054;SDS011;13829;48.990;8.346;2024-03-23T08:04:15;1.53;;;0.70;;
5054;SDS011;13829;48.990;8.346;2024-03-23T08:06:42;0.97;;;0.90;;
5054;SDS011;13829;48.990;8.346;2024-03-23T08:09:09;1.40;;;0.87;;
5054;SDS011;13829;48.990;8.346;2024-03-23T08:11:35;1.00;;;0.97;;
5054;SDS011;13829;48.990;8.346;2024-03-23T08:14:04;2.77;;;1.10;;
5054;SDS011;13829;48.990;8.346;2024-03-23T08:16:30;2.83;;;1.40;;
5054;SDS011;13829;48.990;8.346;2024-03-23T08:18:59;6.50;;;1.87;;
5054;SDS011;13829;48.990;8.346;2024-03-23T08:21:25;5.23;;;2.00;;
5054;SDS011;13829;48.990;8.346;2024-03-23T08:23:53;7.57;;;2.83;;
5054;SDS011;13829;48.990;8.346;2024-03-23T08:26:19;5.50;;;2.47;;
5054;SDS011;13829;48.990;8.346;2024-03-23T08:28:46;3.40;;;2.20;;
5054;SDS011;13829;48.990;8.346;2024-03-23T08:31:13;5.27;;;2.47;;
5054;SDS011;13829;48.990;8.346;2024-03-23T08:33:40;5.00;;;2.53;;
5054;SDS011;13829;48.990;8.346;2024-03-23T08:36:08;8.63;;;2.87;;
5054;SDS011;13829;48.990;8.346;2024-03-23T08:38:37;6.00;;;2.80;;
5054;SDS011;13829;48.990;8.346;2024-03-23T08:41:05;6.07;;;2.97;;
5054;SDS011;13829;48.990;8.346;2024-03-23T08:43:35;5.40;;;2.50;;
5054;SDS011;13829;48.990;8.346;2024-03-23T08:46:05;5.20;;;2.53;;
5054;SDS011;13829;48.990;8.346;2024-03-23T08:48:34;5.67;;;2.97;;
5054;SDS011;13829;48.990;8.346;2024-03-23T08:51:02;6.60;;;2.40;;
5054;SDS011;13829;48.990;8.346;2024-03-23T08:53:29;5.43;;;2.30;;
5054;SDS011;13829;48.990;8.346;2024-03-23T08:55:56;5.77;;;2.63;;
5054;SDS011;13829;48.990;8.346;2024-03-23T08:58:27;5.03;;;2.70;;
5054;SDS011;13829;48.990;8.346;2024-03-23T09:00:56;3.83;;;2.50;;
5054;SDS011;13829;48.990;8.346;2024-03-23T09:03:29;5.80;;;2.53;;
5054;SDS011;13829;48.990;8.346;2024-03-23T09:05:55;3.93;;;2.10;;
5054;SDS011;13829;48.990;8.346;2024-03-23T09:08:23;4.60;;;2.53;;
5054;SDS011;13829;48.990;8.346;2024-03-23T09:10:49;6.80;;;2.73;;
5054;SDS011;13829;48.990;8.346;2024-03-23T09:13:17;6.47;;;2.80;;
5054;SDS011;13829;48.990;8.346;2024-03-23T09:15:48;6.73;;;2.70;;
5054;SDS011;13829;48.990;8.346;2024-03-23T09:18:21;8.60;;;2.87;;
5054;SDS011;13829;48.990;8.346;2024-03-23T09:20:47;3.83;;;2.27;;
5054;SDS011;13829;48.990;8.346;2024-03-23T09:23:14;7.10;;;2.87;;
5054;SDS011;13829;48.990;8.346;2024-03-23T09:25:40;9.40;;;3.00;;
5054;SDS011;13829;48.990;8.346;2024-03-23T09:28:07;8.47;;;2.87;;
5054;SDS011;13829;48.990;8.346;2024-03-23T09:30:33;7.90;;;3.13;;
5054;SDS011;13829;48.990;8.346;2024-03-23T09:33:02;5.17;;;3.20;;
5054;SDS011;13829;48.990;8.346;2024-03-23T09:35:29;6.30;;;3.00;;
5054;SDS011;13829;48.990;8.346;2024-03-23T09:37:56;5.17;;;2.93;;
5054;SDS011;13829;48.990;8.346;2024-03-23T09:40:22;7.00;;;2.70;;
5054;SDS011;13829;48.990;8.346;2024-03-23T09:42:49;9.17;;;3.07;;
5054;SDS011;13829;48.990;8.346;2024-03-23T09:45:18;7.73;;;3.03;;
5054;SDS011;13829;48.990;8.346;2024-03-23T09:47:48;8.53;;;3.50;;
5054;SDS011;13829;48.990;8.346;2024-03-23T09:50:17;10.57;;;4.30;;
5054;SDS011;13829;48.990;8.346;2024-03-23T09:52:45;11.37;;;3.80;;
5054;SDS011;13829;48.990;8.346;2024-03-23T09:55:11;6.67;;;3.50;;
5054;SDS011;13829;48.990;8.346;2024-03-23T09:57:39;6.27;;;3.63;;
5054;SDS011;13829;48.990;8.346;2024-03-23T10:00:05;8.07;;;4.30;;
5054;SDS011;13829;48.990;8.346;2024-03-23T10:02:34;7.27;;;4.13;;
5054;SDS011;13829;48.990;8.346;2024-03-23T10:05:00;8.70;;;4.17;;
5054;SDS011;13829;48.990;8.346;2024-03-23T10:07:29;9.13;;;4.60;;
5054;SDS011;13829;48.990;8.346;2024-03-23T10:09:55;8.30;;;5.17;;
5054;SDS011;13829;48.990;8.346;2024-03-23T10:12:22;8.70;;;4.50;;
5054;SDS011;13829;48.990;8.346;2024-03-23T10:14:49;10.60;;;4.80;;
5054;SDS011;13829;48.990;8.346;2024-03-23T10:17:17;9.27;;;3.77;;
5054;SDS011;13829;48.990;8.346;2024-03-23T10:19:44;8.50;;;4.50;;
5054;SDS011;13829;48.990;8.346;2024-03-23T10:22:15;7.33;;;4.00;;
5054;SDS011;13829;48.990;8.346;2024-03-23T10:24:45;5.93;;;3.83;;
5054;SDS011;13829;48.990;8.346;2024-03-23T10:27:14;6.77;;;3.73;;
5054;SDS011;13829;48.990;8.346;2024-03-23T10:29:41;8.00;;;3.73;;
5054;SDS011;13829;48.990;8.346;2024-03-23T10:32:09;6.30;;;4.13;;
5054;SDS011;13829;48.990;8.346;2024-03-23T10:34:36;8.17;;;4.37;;
5054;SDS011;13829;48.990;8.346;2024-03-23T10:37:04;6.33;;;4.30;;
5054;SDS011;13829;48.990;8.346;2024-03-23T10:39:32;7.37;;;4.70;;
5054;SDS011;13829;48.990;8.346;2024-03-23T10:42:05;10.43;;;3.63;;
5054;SDS011;13829;48.990;8.346;2024-03-23T10:44:33;7.33;;;3.60;;
5054;SDS011;13829;48.990;8.346;2024-03-23T10:47:01;8.73;;;4.07;;
5054;SDS011;13829;48.990;8.346;2024-03-23T10:49:29;5.37;;;2.80;;
5054;SDS011;13829;48.990;8.346;2024-03-23T10:51:57;6.23;;;3.70;;
5054;SDS011;13829;48.990;8.346;2024-03-23T10:54:24;7.60;;;3.90;;
5054;SDS011;13829;48.990;8.346;2024-03-23T10:56:52;4.87;;;2.90;;
5054;SDS011;13829;48.990;8.346;2024-03-23T10:59:33;6.90;;;3.57;;
5054;SDS011;13829;48.990;8.346;2024-03-23T11:02:03;5.13;;;3.23;;
5054;SDS011;13829;48.990;8.346;2024-03-23T11:04:30;5.27;;;3.10;;
5054;SDS011;13829;48.990;8.346;2024-03-23T11:07:03;6.13;;;3.13;;
5054;SDS011;13829;48.990;8.346;2024-03-23T11:09:56;5.30;;;2.63;;
5054;SDS011;13829;48.990;8.346;2024-03-23T11:12:29;5.53;;;2.90;;
5054;SDS011;13829;48.990;8.346;2024-03-23T11:14:58;6.40;;;2.80;;
5054;SDS011;13829;48.990;8.346;2024-03-23T11:17:28;3.90;;;2.70;;
5054;SDS011;13829;48.990;8.346;2024-03-23T11:19:55;5.93;;;2.73;;
5054;SDS011;13829;48.990;8.346;2024-03-23T11:22:39;6.30;;;2.80;;
5054;SDS011;13829;48.990;8.346;2024-03-23T11:25:15;4.13;;;2.73;;
5054;SDS011;13829;48.990;8.346;2024-03-23T11:27:47;4.77;;;2.60;;
5054;SDS011;13829;48.990;8.346;2024-03-23T11:30:15;5.67;;;2.67;;
5054;SDS011;13829;48.990;8.346;2024-03-23T11:32:44;8.70;;;2.93;;
5054;SDS011;13829;48.990;8.346;2024-03-23T11:35:24;6.07;;;3.23;;
5054;SDS011;13829;48.990;8.346;2024-03-23T11:38:05;6.20;;;2.87;;
5054;SDS011;13829;48.990;8.346;2024-03-23T11:40:34;6.17;;;2.43;;
5054;SDS011;13829;48.990;8.346;2024-03-23T11:43:04;5.23;;;2.67;;
5054;SDS011;13829;48.990;8.346;2024-03-23T11:45:35;6.93;;;2.80;;
5054;SDS011;13829;48.990;8.346;2024-03-23T11:48:04;6.23;;;2.57;;
5054;SDS011;13829;48.990;8.346;2024-03-23T11:50:33;9.57;;;3.43;;
5054;SDS011;13829;48.990;8.346;2024-03-23T11:53:08;7.70;;;2.63;;
5054;SDS011;13829;48.990;8.346;2024-03-23T11:55:46;7.97;;;2.80;;
5054;SDS011;13829;48.990;8.346;2024-03-23T11:58:16;7.03;;;2.83;;
5054;SDS011;13829;48.990;8.346;2024-03-23T12:00:49;5.40;;;2.57;;
5054;SDS011;13829;48.990;8.346;2024-03-23T12:03:18;6.50;;;2.70;;
5054;SDS011;13829;48.990;8.346;2024-03-23T12:05:47;6.07;;;2.90;;
5054;SDS011;13829;48.990;8.346;2024-03-23T12:08:18;5.57;;;3.10;;
5054;SDS011;13829;48.990;8.346;2024-03-23T12:10:47;6.23;;;2.97;;
5054;SDS011;13829;48.990;8.346;2024-03-23T12:13:18;5.67;;;2.67;;
5054;SDS011;13829;48.990;8.346;2024-03-23T12:15:46;6.67;;;2.70;;
5054;SDS011;13829;48.990;8.346;2024-03-23T12:18:15;4.03;;;2.37;;
5054;SDS011;13829;48.990;8.346;2024-03-23T12:20:43;7.10;;;2.50;;
5054;SDS011;13829;48.990;8.346;2024-03-23T12:23:10;6.17;;;2.93;;
5054;SDS011;13829;48.990;8.346;2024-03-23T12:25:37;6.00;;;2.60;;
5054;SDS011;13829;48.990;8.346;2024-03-23T12:28:06;8.20;;;2.60;;
5054;SDS011;13829;48.990;8.346;2024-03-23T12:30:35;5.90;;;2.03;;
5054;SDS011;13829;48.990;8.346;2024-03-23T12:33:05;9.23;;;2.27;;
5054;SDS011;13829;48.990;8.346;2024-03-23T12:35:31;7.07;;;2.50;;
5054;SDS011;13829;48.990;8.346;2024-03-23T12:37:59;5.63;;;2.90;;
5054;SDS011;13829;48.990;8.346;2024-03-23T12:40:25;7.30;;;2.87;;
5054;SDS011;13829;48.990;8.346;2024-03-23T12:42:52;6.43;;;3.20;;
5054;SDS011;13829;48.990;8.346;2024-03-23T12:45:18;6.63;;;2.67;;
5054;SDS011;13829;48.990;8.346;2024-03-23T12:47:47;7.50;;;2.00;;
5054;SDS011;13829;48.990;8.346;2024-03-23T12:50:13;6.83;;;2.03;;
5054;SDS011;13829;48.990;8.346;2024-03-23T12:52:40;4.33;;;1.43;;
5054;SDS011;13829;48.990;8.346;2024-03-23T12:55:07;3.07;;;1.27;;
5054;SDS011;13829;48.990;8.346;2024-03-23T12:57:34;2.67;;;1.17;;
5054;SDS011;13829;48.990;8.346;2024-03-23T13:00:01;4.70;;;1.33;;
5054;SDS011;13829;48.990;8.346;2024-03-23T13:02:29;2.90;;;1.50;;
5054;SDS011;13829;48.990;8.346;2024-03-23T13:04:56;4.47;;;1.00;;
5054;SDS011;13829;48.990;8.346;2024-03-23T13:07:23;1.33;;;0.97;;
5054;SDS011;13829;48.990;8.346;2024-03-23T13:09:50;2.57;;;0.90;;
5054;SDS011;13829;48.990;8.346;2024-03-23T13:12:17;1.07;;;0.80;;
5054;SDS011;13829;48.990;8.346;2024-03-23T13:14:44;4.77;;;1.20;;
5054;SDS011;13829;48.990;8.346;2024-03-23T13:17:11;5.17;;;1.50;;
5054;SDS011;13829;48.990;8.346;2024-03-23T13:19:37;3.70;;;1.07;;
5054;SDS011;13829;48.990;8.346;2024-03-23T13:22:05;4.23;;;1.00;;
5054;SDS011;13829;48.990;8.346;2024-03-23T13:24:32;2.80;;;1.50;;
5054;SDS011;13829;48.990;8.346;2024-03-23T13:26:59;3.43;;;1.40;;
5054;SDS011;13829;48.990;8.346;2024-03-23T13:29:25;1.73;;;0.87;;
5054;SDS011;13829;48.990;8.346;2024-03-23T13:31:52;4.30;;;1.33;;
5054;SDS011;13829;48.990;8.346;2024-03-23T13:34:18;3.93;;;1.33;;
5054;SDS011;13829;48.990;8.346;2024-03-23T13:36:45;2.60;;;1.60;;
5054;SDS011;13829;48.990;8.346;2024-03-23T13:39:14;1.57;;;1.00;;
5054;SDS011;13829;48.990;8.346;2024-03-23T13:41:42;2.63;;;1.23;;
5054;SDS011;13829;48.990;8.346;2024-03-23T13:44:10;3.13;;;1.50;;
5054;SDS011;13829;48.990;8.346;2024-03-23T13:46:38;3.23;;;0.97;;
5054;SDS011;13829;48.990;8.346;2024-03-23T13:49:05;2.93;;;1.10;;
5054;SDS011;13829;48.990;8.346;2024-03-23T13:51:32;2.13;;;1.00;;
5054;SDS011;13829;48.990;8.346;2024-03-23T13:53:58;2.77;;;1.13;;
5054;SDS011;13829;48.990;8.346;2024-03-23T13:56:28;3.00;;;1.50;;
5054;SDS011;13829;48.990;8.346;2024-03-23T13:58:54;4.10;;;1.30;;
5054;SDS011;13829;48.990;8.346;2024-03-23T14:01:23;3.67;;;1.37;;
5054;SDS011;13829;48.990;8.346;2024-03-23T14:03:49;3.50;;;1.47;;
5054;SDS011;13829;48.990;8.346;2024-03-23T14:06:16;3.33;;;1.50;;
5054;SDS011;13829;48.990;8.346;2024-03-23T14:08:42;3.60;;;1.13;;
5054;SDS011;13829;48.990;8.346;2024-03-23T14:11:09;5.10;;;1.67;;
5054;SDS011;13829;48.990;8.346;2024-03-23T14:13:37;2.30;;;1.20;;
5054;SDS011;13829;48.990;8.346;2024-03-23T14:16:05;1.10;;;1.00;;
5054;SDS011;13829;48.990;8.346;2024-03-23T14:18:31;2.77;;;0.80;;
5054;SDS011;13829;48.990;8.346;2024-03-23T14:20:59;3.33;;;1.20;;
5054;SDS011;13829;48.990;8.346;2024-03-23T14:23:26;1.43;;;0.67;;
5054;SDS011;13829;48.990;8.346;2024-03-23T14:25:54;1.43;;;0.90;;
5054;SDS011;13829;48.990;8.346;2024-03-23T14:28:21;3.30;;;1.67;;
5054;SDS011;13829;48.990;8.346;2024-03-23T14:30:50;2.07;;;0.90;;
5054;SDS011;13829;48.990;8.346;2024-03-23T14:33:17;2.90;;;0.80;;
5054;SDS011;13829;48.990;8.346;2024-03-23T14:35:51;0.70;;;0.50;;
5054;SDS011;13829;48.990;8.346;2024-03-23T14:38:18;0.60;;;0.43;;
5054;SDS011;13829;48.990;8.346;2024-03-23T14:40:45;0.83;;;0.70;;
5054;SDS011;13829;48.990;8.346;2024-03-23T14:43:11;1.67;;;0.97;;
5054;SDS011;13829;48.990;8.346;2024-03-23T14:45:45;3.07;;;1.10;;
5054;SDS011;13829;48.990;8.346;2024-03-23T14:48:34;4.70;;;0.90;;
5054;SDS011;13829;48.990;8.346;2024-03-23T14:51:02;0.90;;;0.90;;
5054;SDS011;13829;48.990;8.346;2024-03-23T14:53:29;1.97;;;0.90;;
5054;SDS011;13829;48.990;8.346;2024-03-23T14:55:57;5.07;;;1.30;;
5054;SDS011;13829;48.990;8.346;2024-03-23T14:58:25;4.43;;;1.10;;
5054;SDS011;13829;48.990;8.346;2024-03-23T15:00:52;3.27;;;1.33;;
5054;SDS011;13829;48.990;8.346;2024-03-23T15:03:20;4.10;;;1.20;;
5054;SDS011;13829;48.990;8.346;2024-03-23T15:05:53;3.93;;;1.30;;
5054;SDS011;13829;48.990;8.346;2024-03-23T15:08:20;2.57;;;1.30;;
5054;SDS011;13829;48.990;8.346;2024-03-23T15:10:47;4.27;;;1.10;;
5054;SDS011;13829;48.990;8.346;2024-03-23T15:13:13;4.43;;;1.30;;
5054;SDS011;13829;48.990;8.346;2024-03-23T15:15:40;1.73;;;1.00;;
5054;SDS011;13829;48.990;8.346;2024-03-23T15:18:09;2.13;;;1.10;;
5054;SDS011;13829;48.990;8.346;2024-03-23T15:20:38;2.87;;;0.97;;
5054;SDS011;13829;48.990;8.346;2024-03-23T15:23:04;2.53;;;1.10;;
5054;SDS011;13829;48.990;8.346;2024-03-23T15:25:31;3.80;;;1.10;;
5054;SDS011;13829;48.990;8.346;2024-03-23T15:27:57;2.43;;;1.03;;
5054;SDS011;13829;48.990;8.346;2024-03-23T15:30:25;4.73;;;1.00;;
5054;SDS011;13829;48.990;8.346;2024-03-23T15:32:51;5.07;;;1.20;;
5054;SDS011;13829;48.990;8.346;2024-03-23T15:35:18;1.80;;;0.93;;
5054;SDS011;13829;48.990;8.346;2024-03-23T15:37:45;1.23;;;0.90;;
5054;SDS011;13829;48.990;8.346;2024-03-23T15:40:12;2.57;;;1.20;;
5054;SDS011;13829;48.990;8.346;2024-03-23T15:42:38;2.77;;;0.90;;
5054;SDS011;13829;48.990;8.346;2024-03-23T15:45:06;3.10;;;1.20;;
5054;SDS011;13829;48.990;8.346;2024-03-23T15:47:34;3.77;;;1.53;;
5054;SDS011;13829;48.990;8.346;2024-03-23T15:50:01;2.43;;;1.20;;
5054;SDS011;13829;48.990;8.346;2024-03-23T15:52:28;1.20;;;1.10;;
5054;SDS011;13829;48.990;8.346;2024-03-23T15:54:55;1.80;;;1.30;;
5054;SDS011;13829;48.990;8.346;2024-03-23T15:57:24;2.77;;;1.23;;